Time;durP1;ratioP1;P1;durP2;ratioP2;P2;SDS_P1;SDS_P2;PMS_P1;PMS_P2;Temp;Humidity;BMP_temperature;BMP_pressure;BME280_temperature;BME280_humidity;BME280_pressure;Samples;Min_cycle;Max_cycle;Signal;HPM_P1;HPM_P2
2022/09/30 00:01:28;;;;;;;12.80;11.50;;;9.90;99.90;;;;;;5032782;28;20799;-47
2022/09/30 00:03:57;;;;;;;12.90;11.60;;;10.20;99.90;;;;;;5032792;28;20543;-48
2022/09/30 00:06:24;;;;;;;13.93;11.03;;;9.30;99.90;;;;;;5032633;28;20976;-48
2022/09/30 00:08:52;;;;;;;16.53;11.83;;;9.50;99.90;;;;;;5032416;28;20475;-48
2022/09/30 00:11:21;;;;;;;11.57;10.47;;;9.60;99.90;;;;;;5032927;28;20459;-47
2022/09/30 00:13:50;;;;;;;12.20;10.70;;;9.00;99.90;;;;;;5032677;28;20473;-47
2022/09/30 00:16:19;;;;;;;11.93;10.73;;;9.10;99.90;;;;;;5032586;28;20868;-47
2022/09/30 00:18:45;;;;;;;14.13;12.60;;;9.50;99.90;;;;;;5032110;28;20821;-47
2022/09/30 00:21:15;;;;;;;11.80;10.63;;;9.60;99.90;;;;;;5032688;28;20454;-47
2022/09/30 00:23:43;;;;;;;13.57;12.17;;;9.50;99.90;;;;;;5032442;28;20503;-46
2022/09/30 00:26:13;;;;;;;14.10;11.33;;;9.50;99.90;;;;;;5032514;28;20471;-47
2022/09/30 00:28:40;;;;;;;12.73;11.43;;;9.20;99.90;;;;;;5032067;28;20485;-47
2022/09/30 00:31:11;;;;;;;12.70;11.40;;;9.70;99.90;;;;;;5031891;28;20507;-47
2022/09/30 00:33:37;;;;;;;14.83;13.33;;;9.50;99.90;;;;;;5032610;28;20436;-47
2022/09/30 00:36:04;;;;;;;13.33;11.80;;;9.30;99.90;;;;;;5032104;28;20455;-47
2022/09/30 00:38:33;;;;;;;12.70;11.40;;;9.40;99.90;;;;;;5031818;28;20708;-47
2022/09/30 00:41:00;;;;;;;13.87;12.57;;;9.40;99.90;;;;;;5032084;28;20428;-47
2022/09/30 00:43:42;;;;;;;12.93;11.63;;;9.40;99.90;;;;;;5032158;28;20418;-47
2022/09/30 00:46:17;;;;;;;16.73;13.47;;;9.20;99.90;;;;;;5032087;28;20463;-47
2022/09/30 00:48:44;;;;;;;12.70;11.40;;;9.30;99.90;;;;;;5031410;28;20830;-47
2022/09/30 00:51:11;;;;;;;11.53;10.53;;;9.50;99.90;;;;;;5031992;28;20413;-47
2022/09/30 00:53:45;;;;;;;12.50;11.30;;;9.10;99.90;;;;;;5031973;28;20439;-47
2022/09/30 00:56:16;;;;;;;13.47;12.07;;;8.80;99.90;;;;;;5031877;28;20454;-47
2022/09/30 00:58:47;;;;;;;13.27;11.97;;;9.10;99.90;;;;;;5031332;28;20410;-47
2022/09/30 01:01:14;;;;;;;14.33;12.80;;;9.20;99.90;;;;;;5031782;28;20502;-47
2022/09/30 01:03:43;;;;;;;13.07;11.20;;;9.10;99.90;;;;;;5031797;28;20436;-47
2022/09/30 01:06:10;;;;;;;11.73;10.63;;;9.10;99.90;;;;;;5031671;28;20967;-46
2022/09/30 01:08:40;;;;;;;12.47;11.27;;;9.20;99.90;;;;;;5031382;28;20482;-47
2022/09/30 01:11:06;;;;;;;11.93;10.83;;;9.40;99.90;;;;;;5031916;28;20432;-47
2022/09/30 01:13:35;;;;;;;13.10;11.83;;;9.00;99.90;;;;;;5031905;28;20531;-46
2022/09/30 01:16:30;;;;;;;11.50;10.27;;;9.40;99.90;;;;;;5031544;28;20455;-47
2022/09/30 01:19:21;;;;;;;12.00;10.20;;;9.30;99.90;;;;;;5031201;28;20436;-47
2022/09/30 01:22:13;;;;;;;11.57;10.33;;;9.30;99.90;;;;;;5029186;28;20434;-47
2022/09/30 01:24:58;;;;;;;13.70;10.90;;;9.10;99.90;;;;;;5031790;28;20431;-46
2022/09/30 01:27:56;;;;;;;13.57;11.00;;;9.00;99.90;;;;;;5031530;28;20515;-47
2022/09/30 01:30:36;;;;;;;11.90;10.80;;;9.10;99.90;;;;;;5031001;28;20438;-47
2022/09/30 01:33:21;;;;;;;11.97;10.77;;;9.20;99.90;;;;;;5031324;28;20459;-47
2022/09/30 01:36:08;;;;;;;12.57;11.27;;;9.40;99.90;;;;;;5031432;28;20456;-47
2022/09/30 01:38:48;;;;;;;12.53;11.30;;;9.10;99.90;;;;;;5031226;28;20427;-48
2022/09/30 01:41:23;;;;;;;11.90;10.80;;;9.30;99.90;;;;;;5031427;28;20790;-47
2022/09/30 01:44:01;;;;;;;12.93;10.30;;;9.00;99.90;;;;;;5032552;28;20990;-47
2022/09/30 01:46:34;;;;;;;11.93;9.93;;;9.20;99.90;;;;;;5035540;28;20537;-47
2022/09/30 01:49:12;;;;;;;11.40;10.20;;;8.80;99.90;;;;;;5034937;28;20442;-48
2022/09/30 01:51:42;;;;;;;15.80;10.40;;;9.20;99.90;;;;;;5035449;28;20430;-48
2022/09/30 01:54:13;;;;;;;11.73;10.27;;;8.90;99.90;;;;;;5035602;28;20446;-48
2022/09/30 01:56:43;;;;;;;13.23;11.37;;;9.00;99.90;;;;;;5035335;28;20447;-48
2022/09/30 01:59:14;;;;;;;11.90;10.80;;;8.70;99.90;;;;;;5034817;28;20432;-47
2022/09/30 02:01:47;;;;;;;11.17;10.03;;;9.20;99.90;;;;;;5035099;28;20785;-47
2022/09/30 02:04:18;;;;;;;11.50;10.33;;;9.10;99.90;;;;;;5034997;28;20461;-47
2022/09/30 02:06:49;;;;;;;13.53;12.13;;;9.20;99.90;;;;;;5034927;28;20458;-47
2022/09/30 02:09:21;;;;;;;12.97;11.20;;;8.90;99.90;;;;;;5034567;28;20486;-47
2022/09/30 02:11:48;;;;;;;11.20;10.10;;;8.80;99.90;;;;;;5035025;28;20933;-47
2022/09/30 02:14:19;;;;;;;11.90;10.57;;;8.80;99.90;;;;;;5034952;28;20436;-47
2022/09/30 02:16:53;;;;;;;10.77;9.67;;;8.50;99.90;;;;;;5034723;28;20462;-47
2022/09/30 02:19:27;;;;;;;12.33;11.13;;;8.60;99.90;;;;;;5034549;28;20791;-48
2022/09/30 02:21:58;;;;;;;11.63;10.43;;;8.60;99.90;;;;;;5034837;28;20435;-47
2022/09/30 02:24:27;;;;;;;9.67;8.77;;;9.10;99.90;;;;;;5034789;28;20435;-47
2022/09/30 02:26:55;;;;;;;11.63;10.43;;;9.10;99.90;;;;;;5034937;28;20471;-47
2022/09/30 02:29:24;;;;;;;10.80;9.70;;;8.90;99.90;;;;;;5034281;28;20475;-47
2022/09/30 02:31:56;;;;;;;11.57;10.37;;;8.90;99.90;;;;;;5034407;28;20413;-47
2022/09/30 02:34:26;;;;;;;12.50;11.00;;;8.70;99.90;;;;;;5034592;28;20438;-48
2022/09/30 02:36:57;;;;;;;14.80;11.57;;;8.70;99.90;;;;;;5034398;28;20525;-48
2022/09/30 02:39:29;;;;;;;13.83;12.40;;;8.20;99.90;;;;;;5034168;28;20508;-47
2022/09/30 02:42:03;;;;;;;10.97;9.83;;;8.60;99.90;;;;;;5034488;28;20500;-48
2022/09/30 02:44:30;;;;;;;13.33;10.47;;;9.00;99.90;;;;;;5034390;28;20445;-48
2022/09/30 02:47:08;;;;;;;12.80;11.60;;;8.70;99.90;;;;;;5034251;28;20480;-48
2022/09/30 02:49:44;;;;;;;11.17;10.07;;;8.30;99.90;;;;;;5033726;28;20487;-48
2022/09/30 02:52:20;;;;;;;13.57;11.43;;;8.60;99.90;;;;;;5034349;28;20428;-48
2022/09/30 02:54:59;;;;;;;10.43;9.10;;;8.60;99.90;;;;;;5032798;28;20413;-48
2022/09/30 02:57:36;;;;;;;11.97;10.40;;;8.70;99.90;;;;;;5034070;28;20438;-48
2022/09/30 03:00:03;;;;;;;11.37;10.20;;;8.60;99.90;;;;;;5033632;28;20635;-48
2022/09/30 03:02:31;;;;;;;12.30;11.00;;;8.90;99.90;;;;;;5033910;28;20916;-47
2022/09/30 03:04:58;;;;;;;11.87;10.57;;;8.60;99.90;;;;;;5033943;28;20438;-48
2022/09/30 03:07:24;;;;;;;12.53;10.03;;;8.30;99.90;;;;;;5034008;28;20412;-47
2022/09/30 03:09:55;;;;;;;11.57;10.43;;;8.80;99.90;;;;;;5032192;28;20529;-48
2022/09/30 03:12:34;;;;;;;11.47;9.93;;;8.90;99.90;;;;;;5033802;28;20925;-48
2022/09/30 03:15:22;;;;;;;14.80;10.93;;;8.70;99.90;;;;;;5033735;28;20431;-48
2022/09/30 03:18:07;;;;;;;11.43;10.33;;;8.50;99.90;;;;;;5033925;28;20915;-48
2022/09/30 03:20:46;;;;;;;11.93;10.80;;;8.70;99.90;;;;;;5033497;28;20848;-48
2022/09/30 03:23:28;;;;;;;10.97;9.87;;;8.50;99.90;;;;;;5033882;28;20467;-47
2022/09/30 03:26:02;;;;;;;12.13;10.90;;;8.70;99.90;;;;;;5033409;28;20484;-48
2022/09/30 03:28:33;;;;;;;14.40;11.57;;;8.70;99.90;;;;;;5033116;28;20979;-48
2022/09/30 03:31:05;;;;;;;12.17;10.93;;;8.40;99.90;;;;;;5032308;28;20461;-50
2022/09/30 03:33:41;;;;;;;12.77;9.90;;;8.50;99.90;;;;;;5032123;28;20429;-47
2022/09/30 03:36:14;;;;;;;13.77;12.23;;;8.30;99.90;;;;;;5033459;28;20461;-47
2022/09/30 03:38:48;;;;;;;19.90;12.87;;;8.40;99.90;;;;;;5033011;28;20770;-47
2022/09/30 03:41:22;;;;;;;12.40;10.90;;;8.50;99.90;;;;;;5033592;28;20489;-48
2022/09/30 03:43:55;;;;;;;14.20;10.40;;;8.70;99.90;;;;;;5031615;28;20537;-47
2022/09/30 03:46:28;;;;;;;14.53;12.10;;;8.50;99.90;;;;;;5033035;28;20465;-47
2022/09/30 03:49:01;;;;;;;12.27;10.77;;;8.50;99.90;;;;;;5032707;28;21019;-48
2022/09/30 03:51:29;;;;;;;21.87;11.73;;;8.60;99.90;;;;;;5033087;28;20435;-46
2022/09/30 03:53:57;;;;;;;13.10;11.70;;;8.40;99.90;;;;;;5033581;28;20911;-47
2022/09/30 03:56:25;;;;;;;12.67;10.87;;;8.60;99.90;;;;;;5032854;28;20434;-46
2022/09/30 03:58:52;;;;;;;12.20;10.70;;;8.40;99.90;;;;;;5032692;28;20944;-47
2022/09/30 04:01:20;;;;;;;13.63;12.30;;;8.50;99.90;;;;;;5033374;28;20445;-47
2022/09/30 04:03:47;;;;;;;15.30;11.60;;;7.90;99.90;;;;;;5032797;28;20454;-47
2022/09/30 04:06:15;;;;;;;15.10;11.90;;;8.30;99.90;;;;;;5032268;28;20436;-47
2022/09/30 04:08:42;;;;;;;15.77;11.20;;;8.40;99.90;;;;;;5032171;28;20471;-46
2022/09/30 04:11:09;;;;;;;13.20;10.20;;;8.40;99.90;;;;;;5032627;28;20424;-47
2022/09/30 04:13:35;;;;;;;14.47;11.30;;;8.20;99.90;;;;;;5032737;28;20486;-47
2022/09/30 04:16:02;;;;;;;13.17;11.10;;;8.80;99.90;;;;;;5032568;28;20454;-47
2022/09/30 04:18:30;;;;;;;16.33;11.37;;;8.30;99.90;;;;;;5032263;28;20466;-47
2022/09/30 04:20:56;;;;;;;14.20;11.47;;;8.40;99.90;;;;;;5032584;28;20459;-47
2022/09/30 04:23:25;;;;;;;11.87;10.60;;;8.50;99.90;;;;;;5032075;28;20444;-47
2022/09/30 04:25:52;;;;;;;15.83;11.57;;;8.50;99.90;;;;;;5056052;23;21694;-49
2022/09/30 04:28:19;;;;;;;13.73;11.00;;;8.40;99.90;;;;;;5033123;28;20879;-48
2022/09/30 04:30:46;;;;;;;14.20;11.00;;;8.50;99.90;;;;;;5032516;28;20894;-49
2022/09/30 04:33:12;;;;;;;15.10;11.37;;;8.00;99.90;;;;;;5032850;28;20441;-48
2022/09/30 04:35:39;;;;;;;14.90;10.83;;;8.60;99.90;;;;;;5015193;28;20451;-48
2022/09/30 04:38:06;;;;;;;16.90;12.07;;;9.10;99.90;;;;;;5032784;28;20445;-49
2022/09/30 04:40:36;;;;;;;14.77;11.50;;;8.30;99.90;;;;;;5032663;28;20988;-48
2022/09/30 04:43:03;;;;;;;13.83;11.80;;;8.30;99.90;;;;;;5032723;28;20809;-47
2022/09/30 04:45:29;;;;;;;15.47;13.17;;;8.40;99.90;;;;;;5032623;28;20469;-48
2022/09/30 04:47:56;;;;;;;15.20;12.53;;;8.30;99.90;;;;;;5032480;28;20843;-48
2022/09/30 04:50:23;;;;;;;16.00;13.07;;;7.80;99.90;;;;;;5031969;28;20479;-48
2022/09/30 04:52:50;;;;;;;15.97;12.53;;;8.30;99.90;;;;;;5014790;28;20876;-49
2022/09/30 04:55:17;;;;;;;15.63;12.63;;;8.30;99.90;;;;;;5032569;28;20493;-50
2022/09/30 04:57:45;;;;;;;13.90;12.23;;;8.20;99.90;;;;;;5032407;28;20468;-49
2022/09/30 05:00:12;;;;;;;13.63;12.20;;;8.50;99.90;;;;;;5032294;28;20454;-48
2022/09/30 05:02:39;;;;;;;13.67;12.20;;;8.40;99.90;;;;;;5032373;28;20438;-48
2022/09/30 05:05:06;;;;;;;16.50;13.30;;;8.40;99.90;;;;;;5032341;28;20413;-47
2022/09/30 05:07:33;;;;;;;20.83;16.60;;;8.50;99.90;;;;;;5032210;28;20460;-49
2022/09/30 05:10:00;;;;;;;16.63;13.30;;;8.20;99.90;;;;;;5031702;28;20481;-49
2022/09/30 05:12:26;;;;;;;16.10;12.37;;;8.40;99.90;;;;;;5032193;28;20431;-49
2022/09/30 05:14:54;;;;;;;14.43;12.63;;;7.70;99.90;;;;;;5032378;28;20544;-49
2022/09/30 05:17:21;;;;;;;15.73;13.67;;;8.10;99.90;;;;;;5031551;28;20462;-48
2022/09/30 05:19:48;;;;;;;20.37;14.43;;;8.40;99.90;;;;;;5013956;28;20977;-48
2022/09/30 05:22:15;;;;;;;16.47;12.90;;;8.10;99.90;;;;;;5031865;28;20443;-48
2022/09/30 05:24:41;;;;;;;15.10;12.73;;;8.20;99.90;;;;;;5031818;28;20441;-47
2022/09/30 05:27:08;;;;;;;13.53;12.03;;;8.20;99.90;;;;;;5031463;28;20488;-47
2022/09/30 05:29:35;;;;;;;14.60;12.70;;;8.30;99.90;;;;;;5031683;28;20465;-48
2022/09/30 05:32:03;;;;;;;17.37;14.63;;;8.30;99.90;;;;;;5031544;28;20442;-48
2022/09/30 05:34:29;;;;;;;15.93;13.90;;;8.40;99.90;;;;;;5032023;28;20437;-48
2022/09/30 05:36:56;;;;;;;17.63;13.30;;;8.30;99.90;;;;;;5031651;28;20481;-49
2022/09/30 05:39:23;;;;;;;15.23;12.67;;;8.40;99.90;;;;;;5031134;28;20518;-50
2022/09/30 05:41:49;;;;;;;14.57;13.07;;;8.30;99.90;;;;;;5032005;28;20413;-48
2022/09/30 05:44:16;;;;;;;18.27;14.00;;;8.30;99.90;;;;;;5031317;28;20809;-49
2022/09/30 05:46:43;;;;;;;19.57;12.93;;;8.30;99.90;;;;;;5031372;28;21123;-48
2022/09/30 05:49:11;;;;;;;16.13;13.00;;;8.00;99.90;;;;;;5030925;28;20485;-49
2022/09/30 05:51:38;;;;;;;21.37;13.97;;;8.60;99.90;;;;;;5031647;28;20439;-49
2022/09/30 05:54:04;;;;;;;16.53;13.80;;;8.50;99.90;;;;;;5031410;28;20488;-49
2022/09/30 05:56:33;;;;;;;15.73;12.40;;;8.60;99.90;;;;;;5031908;28;20471;-48
2022/09/30 05:59:00;;;;;;;22.03;14.63;;;8.80;99.90;;;;;;5013186;28;20451;-48
2022/09/30 06:01:26;;;;;;;23.63;13.30;;;8.70;99.90;;;;;;5032051;28;20442;-47
2022/09/30 06:03:53;;;;;;;20.53;12.40;;;8.70;99.90;;;;;;5031913;28;20879;-49
2022/09/30 06:06:21;;;;;;;14.90;12.40;;;9.40;99.90;;;;;;5031931;28;20458;-48
2022/09/30 06:08:48;;;;;;;19.50;14.40;;;8.90;99.90;;;;;;5013713;28;20483;-47
2022/09/30 06:11:16;;;;;;;21.70;12.60;;;9.00;99.90;;;;;;5031636;28;20434;-48
2022/09/30 06:13:44;;;;;;;15.20;12.33;;;9.10;99.90;;;;;;5031763;28;20440;-48
2022/09/30 06:16:12;;;;;;;14.37;12.67;;;9.60;99.90;;;;;;5031351;28;20979;-48
2022/09/30 06:18:40;;;;;;;17.07;13.07;;;9.60;99.90;;;;;;5031572;28;20514;-49
2022/09/30 06:21:08;;;;;;;15.70;12.87;;;9.20;99.90;;;;;;5031765;28;20428;-48
2022/09/30 06:23:36;;;;;;;14.53;12.07;;;9.50;99.90;;;;;;5031444;28;20431;-48
2022/09/30 06:26:04;;;;;;;13.93;12.50;;;9.70;99.90;;;;;;5031249;28;20445;-48
2022/09/30 06:28:33;;;;;;;13.83;12.47;;;9.50;99.90;;;;;;5013203;28;20952;-48
2022/09/30 06:30:59;;;;;;;12.53;11.30;;;9.70;99.90;;;;;;5017404;28;20452;-48
2022/09/30 06:33:26;;;;;;;14.03;11.90;;;9.80;99.90;;;;;;5035661;28;20431;-48
2022/09/30 06:35:53;;;;;;;14.87;12.00;;;9.60;99.90;;;;;;5035718;28;20482;-48
2022/09/30 06:38:21;;;;;;;17.97;12.07;;;10.00;99.90;;;;;;5035747;28;20436;-48
2022/09/30 06:40:49;;;;;;;12.83;10.70;;;9.80;99.90;;;;;;5035214;28;20407;-49
2022/09/30 06:43:16;;;;;;;15.20;11.03;;;9.70;99.90;;;;;;5035491;28;20440;-48
2022/09/30 06:45:44;;;;;;;19.93;12.97;;;10.20;99.90;;;;;;5034562;28;20431;-50
2022/09/30 06:48:11;;;;;;;13.27;11.20;;;9.90;99.90;;;;;;5034838;28;20861;-49
2022/09/30 06:50:38;;;;;;;13.50;12.10;;;10.10;99.90;;;;;;5034560;28;20513;-48
2022/09/30 06:53:07;;;;;;;14.27;12.47;;;9.80;99.90;;;;;;5034840;28;20445;-48
2022/09/30 06:55:37;;;;;;;16.53;12.40;;;10.00;99.90;;;;;;5033804;28;20793;-48
2022/09/30 06:58:07;;;;;;;13.30;11.60;;;10.10;99.90;;;;;;5034395;28;20924;-49
2022/09/30 07:00:35;;;;;;;15.33;11.60;;;10.10;99.90;;;;;;5034072;28;20438;-49
2022/09/30 07:03:02;;;;;;;13.13;11.57;;;10.20;99.90;;;;;;5016378;28;20456;-49
2022/09/30 07:05:28;;;;;;;12.43;11.03;;;10.20;99.90;;;;;;5034359;28;20494;-50
2022/09/30 07:07:55;;;;;;;17.97;12.23;;;10.80;99.90;;;;;;5034349;28;20427;-48
2022/09/30 07:10:22;;;;;;;14.27;11.57;;;10.20;99.90;;;;;;5034043;28;20518;-48
2022/09/30 07:12:50;;;;;;;14.00;12.53;;;10.20;99.90;;;;;;5034221;28;20626;-49
2022/09/30 07:15:20;;;;;;;12.90;11.20;;;10.40;99.90;;;;;;5033807;28;20452;-49
2022/09/30 07:17:51;;;;;;;17.30;11.80;;;10.20;99.90;;;;;;5034187;28;20459;-48
2022/09/30 07:20:17;;;;;;;14.20;12.70;;;10.20;99.90;;;;;;5033565;28;20442;-50
2022/09/30 07:22:45;;;;;;;14.03;12.07;;;10.60;99.90;;;;;;5033847;28;20439;-49
2022/09/30 07:25:13;;;;;;;15.00;11.93;;;10.40;99.90;;;;;;5034243;28;20924;-49
2022/09/30 07:27:40;;;;;;;15.93;12.57;;;10.40;99.90;;;;;;5033899;28;20475;-49
2022/09/30 07:30:07;;;;;;;14.40;12.80;;;10.50;99.90;;;;;;5033273;28;20475;-49
2022/09/30 07:32:35;;;;;;;13.93;12.57;;;10.40;99.90;;;;;;5034044;28;20436;-50
2022/09/30 07:35:02;;;;;;;20.00;12.70;;;10.40;99.90;;;;;;5033973;28;20439;-50
2022/09/30 07:37:34;;;;;;;13.90;12.37;;;10.40;99.90;;;;;;5016436;28;20471;-49
2022/09/30 07:40:03;;;;;;;15.73;13.60;;;10.70;99.90;;;;;;5033631;28;20435;-49
2022/09/30 07:42:30;;;;;;;15.90;13.47;;;10.70;99.90;;;;;;5032991;28;20478;-50
2022/09/30 07:44:58;;;;;;;15.20;12.17;;;10.90;99.90;;;;;;5033903;28;20443;-49
2022/09/30 07:47:24;;;;;;;17.60;13.13;;;11.20;99.90;;;;;;5015920;28;20912;-50
2022/09/30 07:49:52;;;;;;;23.10;14.10;;;10.80;99.90;;;;;;5033711;28;20487;-48
2022/09/30 07:52:19;;;;;;;17.40;14.03;;;11.20;99.90;;;;;;5034013;28;20474;-49
2022/09/30 07:54:45;;;;;;;20.70;14.27;;;11.30;99.90;;;;;;5033266;28;20940;-47
2022/09/30 07:57:12;;;;;;;19.40;13.50;;;11.20;99.90;;;;;;5033162;28;20539;-49
2022/09/30 07:59:41;;;;;;;16.93;13.43;;;11.00;99.90;;;;;;5033120;28;20434;-48
2022/09/30 08:02:13;;;;;;;14.87;12.27;;;10.80;99.90;;;;;;5033206;28;20904;-49
2022/09/30 08:04:40;;;;;;;14.73;12.60;;;11.10;99.90;;;;;;5033589;28;20930;-48
2022/09/30 08:07:08;;;;;;;16.53;13.43;;;11.00;99.90;;;;;;5032678;28;20846;-49
2022/09/30 08:09:35;;;;;;;14.53;12.63;;;11.30;99.90;;;;;;5032705;28;20475;-49
2022/09/30 08:12:03;;;;;;;16.60;13.03;;;11.40;99.90;;;;;;5032771;28;20435;-49
2022/09/30 08:14:30;;;;;;;14.70;13.10;;;11.30;99.90;;;;;;5032515;28;20551;-49
2022/09/30 08:16:59;;;;;;;16.33;13.20;;;11.20;99.90;;;;;;5032954;28;20454;-50
2022/09/30 08:19:26;;;;;;;15.77;14.17;;;11.60;99.90;;;;;;5032435;28;20939;-49
2022/09/30 08:21:53;;;;;;;14.43;12.93;;;11.40;99.90;;;;;;5032961;28;20453;-50
2022/09/30 08:24:22;;;;;;;15.50;13.90;;;11.50;99.90;;;;;;5032788;28;20436;-49
2022/09/30 08:26:49;;;;;;;23.23;14.57;;;11.50;99.90;;;;;;5032391;28;20471;-49
2022/09/30 08:29:15;;;;;;;20.23;14.23;;;11.90;99.90;;;;;;5032076;28;20440;-49
2022/09/30 08:31:42;;;;;;;17.73;14.93;;;11.70;99.90;;;;;;5032542;28;20433;-48
2022/09/30 08:34:09;;;;;;;21.90;15.03;;;12.00;99.90;;;;;;5032512;28;20943;-48
2022/09/30 08:36:35;;;;;;;17.10;13.40;;;11.90;99.90;;;;;;5032309;28;20514;-49
2022/09/30 08:39:02;;;;;;;20.00;15.37;;;11.90;99.90;;;;;;5032033;28;20801;-49
2022/09/30 08:42:03;;;;;;;22.93;15.50;;;11.70;99.90;;;;;;5032071;28;20425;-48
2022/09/30 08:44:42;;;;;;;20.60;14.87;;;11.90;99.90;;;;;;5032557;28;20478;-48
2022/09/30 08:47:27;;;;;;;15.00;13.33;;;12.40;99.90;;;;;;5032005;28;20461;-48
2022/09/30 08:50:02;;;;;;;23.77;14.60;;;12.40;99.90;;;;;;5031886;28;20472;-48
2022/09/30 08:52:33;;;;;;;18.03;15.40;;;11.80;99.90;;;;;;5031981;28;20867;-49
2022/09/30 08:55:00;;;;;;;17.93;13.43;;;12.10;99.90;;;;;;5031825;28;20498;-48
2022/09/30 08:57:35;;;;;;;17.93;14.67;;;12.30;99.90;;;;;;5032122;28;20449;-48
2022/09/30 09:00:06;;;;;;;17.43;13.77;;;12.40;99.90;;;;;;5031984;28;20806;-48
2022/09/30 09:02:34;;;;;;;21.37;13.67;;;12.10;99.90;;;;;;5030442;28;20446;-48
2022/09/30 09:05:04;;;;;;;17.33;13.70;;;12.30;99.90;;;;;;5031670;28;20499;-48
2022/09/30 09:07:40;;;;;;;16.67;14.97;;;12.50;99.90;;;;;;5035383;28;20561;-48
2022/09/30 09:10:19;;;;;;;17.00;15.20;;;12.40;99.90;;;;;;5039027;28;20963;-47
2022/09/30 09:12:57;;;;;;;23.30;14.97;;;12.80;99.90;;;;;;5023316;28;20626;-50
2022/09/30 09:15:43;;;;;;;21.57;14.77;;;12.60;99.90;;;;;;5032765;28;20448;-49
2022/09/30 09:18:39;;;;;;;18.30;14.93;;;12.90;99.90;;;;;;5031379;28;20453;-48
2022/09/30 09:21:19;;;;;;;19.57;14.50;;;12.80;99.90;;;;;;5031583;28;20906;-47
2022/09/30 09:23:47;;;;;;;14.77;13.10;;;12.60;99.90;;;;;;5031336;28;20450;-47
2022/09/30 09:26:15;;;;;;;17.40;13.87;;;13.20;99.90;;;;;;5022807;28;20480;-48
2022/09/30 09:28:51;;;;;;;22.83;17.63;;;13.20;99.90;;;;;;5031183;28;20421;-49
2022/09/30 09:31:19;;;;;;;25.80;20.03;;;13.10;99.90;;;;;;5013758;28;20474;-48
2022/09/30 09:33:47;;;;;;;19.63;15.73;;;13.10;99.90;;;;;;5048372;28;20439;-47
2022/09/30 09:36:26;;;;;;;17.70;13.80;;;13.10;99.90;;;;;;5027321;28;20545;-48
2022/09/30 09:39:15;;;;;;;13.87;11.00;;;13.40;99.90;;;;;;5025443;28;20441;-48
2022/09/30 09:41:50;;;;;;;12.07;10.87;;;13.10;99.90;;;;;;5027026;28;20958;-49
2022/09/30 09:44:26;;;;;;;12.90;11.60;;;13.40;99.90;;;;;;5030839;28;20514;-49
2022/09/30 09:47:04;;;;;;;11.97;10.80;;;13.40;99.90;;;;;;5030480;28;20474;-48
2022/09/30 09:49:33;;;;;;;11.47;10.30;;;13.60;99.90;;;;;;5029144;28;20987;-48
2022/09/30 09:52:46;;;;;;;11.90;10.80;;;13.60;99.90;;;;;;5031280;28;20784;-48
2022/09/30 09:55:14;;;;;;;12.70;10.10;;;13.70;99.90;;;;;;5034881;28;20419;-49
2022/09/30 09:57:41;;;;;;;11.40;10.30;;;13.60;99.90;;;;;;5031270;28;20224;-48
2022/09/30 10:03:00;;;;;;;11.60;10.33;;;13.30;99.90;;;;;;5031047;28;20448;-49
2022/09/30 10:05:28;;;;;;;13.23;10.10;;;13.80;99.90;;;;;;5039647;28;20441;-48
2022/09/30 10:08:10;;;;;;;11.07;10.07;;;13.80;99.90;;;;;;5034115;28;20986;-47
2022/09/30 10:10:48;;;;;;;10.50;9.53;;;13.80;99.90;;;;;;5040058;28;20846;-47
2022/09/30 10:13:17;;;;;;;10.47;9.47;;;13.90;99.90;;;;;;5034680;28;20433;-48
2022/09/30 10:15:46;;;;;;;10.30;9.40;;;13.90;99.90;;;;;;5037416;28;20447;-49
2022/09/30 10:18:20;;;;;;;10.80;9.63;;;14.00;99.90;;;;;;5037385;28;20434;-49
2022/09/30 10:20:51;;;;;;;9.47;8.57;;;14.00;99.90;;;;;;5034615;28;20453;-49
2022/09/30 10:23:21;;;;;;;10.90;9.70;;;14.30;99.90;;;;;;5034284;28;20485;-50
2022/09/30 10:28:23;;;;;;;10.23;9.23;;;13.90;99.90;;;;;;4992943;28;20460;-48
2022/09/30 10:30:55;;;;;;;10.70;8.80;;;14.10;99.90;;;;;;4994757;28;20581;-48
2022/09/30 10:33:29;;;;;;;11.93;10.23;;;14.20;99.90;;;;;;4994722;28;20488;-48
2022/09/30 10:36:02;;;;;;;11.13;10.10;;;14.20;99.90;;;;;;4995757;28;20460;-48
2022/09/30 10:38:30;;;;;;;9.77;8.77;;;14.40;99.90;;;;;;5001776;28;20929;-46
2022/09/30 10:40:58;;;;;;;9.43;8.50;;;14.60;99.90;;;;;;4994260;28;20667;-46
2022/09/30 10:43:29;;;;;;;9.97;8.97;;;14.10;99.90;;;;;;4994213;28;20787;-48
2022/09/30 10:46:02;;;;;;;9.00;8.20;;;14.70;99.90;;;;;;4993640;28;20451;-49
2022/09/30 10:48:32;;;;;;;11.88;9.20;;;14.50;99.90;;;;;;4993305;28;20523;-45
2022/09/30 10:51:00;;;;;;;11.20;10.10;;;14.60;99.90;;;;;;4994033;28;20210;-47
2022/09/30 10:53:28;;;;;;;8.60;7.80;;;14.70;99.90;;;;;;4993150;28;20433;-45
2022/09/30 10:55:56;;;;;;;9.57;8.60;;;14.70;99.90;;;;;;4994020;28;20869;-46
2022/09/30 10:58:29;;;;;;;10.63;8.50;;;14.30;99.90;;;;;;4994368;28;20922;-47
2022/09/30 11:01:04;;;;;;;9.60;7.50;;;14.80;99.90;;;;;;4994088;28;20453;-46
2022/09/30 11:03:36;;;;;;;8.50;7.50;;;15.00;99.90;;;;;;4994096;28;20483;-46
2022/09/30 11:06:04;;;;;;;9.53;8.53;;;14.70;99.90;;;;;;4993934;28;20440;-46
2022/09/30 11:08:35;;;;;;;10.50;7.40;;;14.80;99.90;;;;;;4993605;28;20441;-46
2022/09/30 11:11:09;;;;;;;6.40;5.70;;;14.60;99.90;;;;;;4993892;28;20483;-47
2022/09/30 11:13:40;;;;;;;8.50;6.40;;;14.90;99.90;;;;;;4994245;28;20437;-46
2022/09/30 11:16:18;;;;;;;7.90;5.87;;;14.90;99.90;;;;;;4992387;28;20500;-46
2022/09/30 11:18:50;;;;;;;6.50;4.50;;;15.00;99.90;;;;;;4993585;28;21346;-46
2022/09/30 11:21:21;;;;;;;5.60;4.30;;;15.30;98.90;;;;;;4993820;28;20934;-46
2022/09/30 11:23:53;;;;;;;6.60;4.30;;;15.30;98.50;;;;;;4994103;28;20488;-46
2022/09/30 11:26:33;;;;;;;6.10;5.50;;;15.00;98.00;;;;;;4993775;28;20946;-46
2022/09/30 11:29:14;;;;;;;5.60;4.30;;;15.10;98.30;;;;;;4993478;28;20790;-46
2022/09/30 11:31:52;;;;;;;4.80;4.30;;;15.20;97.70;;;;;;4993817;28;20492;-46
2022/09/30 11:34:30;;;;;;;4.57;4.17;;;15.00;97.40;;;;;;4994159;28;20433;-47
2022/09/30 11:37:05;;;;;;;5.87;5.10;;;15.10;97.20;;;;;;4993800;28;20461;-46
2022/09/30 11:39:47;;;;;;;6.60;4.90;;;15.20;97.20;;;;;;4993827;28;20436;-48
2022/09/30 11:42:21;;;;;;;5.07;4.27;;;15.00;97.20;;;;;;4993583;28;20442;-47
2022/09/30 11:44:55;;;;;;;7.00;4.60;;;15.40;97.10;;;;;;4993787;28;20453;-46
2022/09/30 11:47:43;;;;;;;6.10;4.80;;;14.80;96.40;;;;;;4994094;28;20892;-47
2022/09/30 11:50:29;;;;;;;6.50;4.73;;;15.30;96.80;;;;;;4994165;28;20520;-47
2022/09/30 11:53:08;;;;;;;13.50;10.80;;;15.40;96.70;;;;;;4994189;28;20496;-48
2022/09/30 11:56:00;;;;;;;8.63;4.97;;;15.40;97.10;;;;;;4994221;28;20433;-47
2022/09/30 11:58:34;;;;;;;7.67;5.90;;;15.60;97.40;;;;;;4992885;28;20546;-48
2022/09/30 12:01:13;;;;;;;7.40;5.33;;;15.60;97.20;;;;;;4993172;28;20437;-47
2022/09/30 12:03:47;;;;;;;4.73;4.23;;;15.70;96.80;;;;;;4993579;28;20802;-47
2022/09/30 12:06:21;;;;;;;5.67;5.07;;;15.80;95.90;;;;;;4992968;28;20541;-47
2022/09/30 12:08:50;;;;;;;4.23;3.83;;;15.80;96.10;;;;;;4975331;28;20552;-48
2022/09/30 12:11:21;;;;;;;6.47;4.57;;;15.90;95.90;;;;;;4992792;28;20499;-47
2022/09/30 12:13:51;;;;;;;5.57;3.60;;;15.90;95.70;;;;;;4992923;28;20934;-47
2022/09/30 12:16:22;;;;;;;6.07;4.30;;;15.60;95.40;;;;;;4993386;28;20531;-48
2022/09/30 12:18:56;;;;;;;4.97;4.47;;;15.90;95.40;;;;;;5003971;28;20449;-48
2022/09/30 12:21:29;;;;;;;7.90;4.83;;;15.90;95.20;;;;;;5011157;28;20510;-47
2022/09/30 12:24:10;;;;;;;4.43;4.03;;;15.90;95.30;;;;;;5013017;28;20935;-47
2022/09/30 12:26:37;;;;;;;5.33;3.83;;;16.00;95.00;;;;;;5005356;28;20477;-46
2022/09/30 12:32:11;;;;;;;6.60;4.73;;;15.80;95.20;;;;;;5012594;28;20475;-47
2022/09/30 12:35:00;;;;;;;13.83;10.33;;;16.10;95.40;;;;;;5012837;28;20532;-47
2022/09/30 12:37:54;;;;;;;5.40;4.17;;;16.00;95.30;;;;;;4992362;28;20486;-49
2022/09/30 12:40:41;;;;;;;4.60;3.57;;;16.20;95.10;;;;;;5011715;28;20544;-47
2022/09/30 12:43:23;;;;;;;7.90;3.60;;;16.30;95.40;;;;;;5011634;28;20540;-48
2022/09/30 12:46:12;;;;;;;6.97;4.27;;;16.00;95.20;;;;;;5011193;28;20443;-48
2022/09/30 12:48:43;;;;;;;5.53;3.63;;;16.50;94.40;;;;;;5011604;28;20465;-47
2022/09/30 12:51:25;;;;;;;5.53;4.00;;;16.30;94.60;;;;;;5011138;28;20484;-47
2022/09/30 12:53:58;;;;;;;7.13;4.30;;;16.30;94.30;;;;;;4994627;28;20445;-49
2022/09/30 12:56:28;;;;;;;5.17;3.10;;;16.30;94.10;;;;;;4991910;28;20508;-47
2022/09/30 12:58:56;;;;;;;3.93;3.00;;;16.40;93.90;;;;;;4991703;28;20448;-47
2022/09/30 13:01:25;;;;;;;5.53;4.00;;;16.50;93.80;;;;;;4992495;28;20556;-47
2022/09/30 13:04:15;;;;;;;60.53;43.63;;;16.50;94.00;;;;;;5011767;28;20452;-48
2022/09/30 13:07:16;;;;;;;6.25;4.20;;;16.60;93.70;;;;;;5011384;28;20950;-47